Time;durP1;ratioP1;P1;durP2;ratioP2;P2;SDS_P1;SDS_P2;PMS_P1;PMS_P2;Temp;Humidity;BMP_temperature;BMP_pressure;BME280_temperature;BME280_humidity;BME280_pressure;Samples;Min_cycle;Max_cycle;Signal;HPM_P1;HPM_P2
2024/03/12 00:00:32;;;;;;;;;;;;;;;7.06;nan;100054.94;5031516;28;19922;-70
2024/03/12 00:02:57;;;;;;;;;;;;;;;7.03;nan;100061.28;5002037;28;20350;-70
2024/03/12 00:05:24;;;;;;;;;;;;;;;7.01;nan;100064.06;5023369;28;19922;-69
2024/03/12 00:07:53;;;;;;;;;;;;;;;7.01;nan;100058.81;5018606;28;20187;-69
2024/03/12 00:10:19;;;;;;;;;;;;;;;7.05;nan;100067.22;4992598;28;19956;-70
2024/03/12 00:12:49;;;;;;;;;;;;;;;7.04;nan;100062.97;5005570;28;19922;-69
2024/03/12 00:15:22;;;;;;;;;;;;;;;7.09;nan;100067.78;4988270;28;19928;-69
2024/03/12 00:17:53;;;;;;;;;;;;;;;7.11;nan;100061.44;4988470;28;20004;-69
2024/03/12 00:20:40;;;;;;;;;;;;;;;7.11;nan;100069.31;4989420;28;19921;-69
2024/03/12 00:23:07;;;;;;;;;;;;;;;7.12;nan;100072.75;5031736;28;19922;-69
2024/03/12 00:25:33;;;;;;;;;;;;;;;7.14;nan;100076.09;5007285;28;20032;-69
2024/03/12 00:28:00;;;;;;;;;;;;;;;7.14;nan;100065.56;5010951;28;19928;-69
2024/03/12 00:30:26;;;;;;;;;;;;;;;7.15;nan;100072.47;4998871;28;19929;-69
2024/03/12 00:32:54;;;;;;;;;;;;;;;7.12;nan;100072.75;5031020;28;19925;-69
2024/03/12 00:35:23;;;;;;;;;;;;;;;7.09;nan;100070.41;5013256;28;20391;-69
2024/03/12 00:37:50;;;;;;;;;;;;;;;7.07;nan;100080.25;5003984;28;19929;-69
2024/03/12 00:40:17;;;;;;;;;;;;;;;7.05;nan;100077.75;5004363;28;19926;-71
2024/03/12 00:42:43;;;;;;;;;;;;;;;7.03;nan;100071.78;5008877;28;19922;-69
2024/03/12 00:45:25;;;;;;;;;;;;;;;7.02;nan;100076.22;5004030;28;19932;-69
2024/03/12 00:47:52;;;;;;;;;;;;;;;7.02;nan;100084.13;4982537;28;19933;-69
2024/03/12 00:50:20;;;;;;;;;;;;;;;7.03;nan;100087.56;5005962;28;19921;-69
2024/03/12 00:52:46;;;;;;;;;;;;;;;7.09;nan;100086.19;5007793;28;19949;-69
2024/03/12 00:55:16;;;;;;;;;;;;;;;7.08;nan;100081.88;5005424;28;20000;-70
2024/03/12 00:57:42;;;;;;;;;;;;;;;7.07;nan;100088.13;5010678;28;20406;-69
2024/03/12 01:00:16;;;;;;;;;;;;;;;7.06;nan;100097.00;5002632;28;19925;-70
2024/03/12 01:02:49;;;;;;;;;;;;;;;6.98;nan;100095.91;5007601;28;20004;-69
2024/03/12 01:05:18;;;;;;;;;;;;;;;6.91;nan;100094.78;5006992;28;19956;-69
2024/03/12 01:07:45;;;;;;;;;;;;;;;6.85;nan;100102.41;5004920;28;19921;-69
2024/03/12 01:10:11;;;;;;;;;;;;;;;6.78;nan;100102.94;5010217;28;20396;-69
2024/03/12 01:12:39;;;;;;;;;;;;;;;6.72;nan;100095.63;4993180;28;19922;-69
2024/03/12 01:15:08;;;;;;;;;;;;;;;6.69;nan;100105.56;4987926;28;19922;-69
2024/03/12 01:17:34;;;;;;;;;;;;;;;6.65;nan;100101.53;5003141;28;20023;-69
2024/03/12 01:19:59;;;;;;;;;;;;;;;6.62;nan;100112.31;5032143;28;20600;-69
2024/03/12 01:22:25;;;;;;;;;;;;;;;6.56;nan;100111.09;5003711;28;19929;-70
2024/03/12 01:24:51;;;;;;;;;;;;;;;6.50;nan;100111.63;5003636;28;20391;-69
2024/03/12 01:27:17;;;;;;;;;;;;;;;6.43;nan;100113.94;5002418;28;20494;-69
2024/03/12 01:29:43;;;;;;;;;;;;;;;6.37;nan;100112.69;4991488;28;19932;-69
2024/03/12 01:32:09;;;;;;;;;;;;;;;6.30;nan;100111.59;4997910;28;20413;-69
2024/03/12 01:34:34;;;;;;;;;;;;;;;6.24;nan;100114.72;5004233;28;19929;-69
2024/03/12 01:37:00;;;;;;;;;;;;;;;6.18;nan;100115.28;5007110;28;19953;-69
2024/03/12 01:39:28;;;;;;;;;;;;;;;6.13;nan;100112.22;4994999;28;19929;-69
2024/03/12 01:41:54;;;;;;;;;;;;;;;6.04;nan;100119.09;5004178;28;19968;-69
2024/03/12 01:44:21;;;;;;;;;;;;;;;5.99;nan;100118.66;5023712;28;19922;-69
2024/03/12 01:46:47;;;;;;;;;;;;;;;5.94;nan;100105.94;5006668;28;20310;-69
2024/03/12 01:49:14;;;;;;;;;;;;;;;5.92;nan;100112.25;5005325;28;19940;-69
2024/03/12 01:51:43;;;;;;;;;;;;;;;5.90;nan;100111.56;5004353;28;20227;-69
2024/03/12 01:54:09;;;;;;;;;;;;;;;5.85;nan;100113.75;5028391;28;20271;-69
2024/03/12 01:56:35;;;;;;;;;;;;;;;5.81;nan;100114.97;5007183;28;19921;-69
2024/03/12 01:59:01;;;;;;;;;;;;;;;5.78;nan;100108.19;5007753;28;19972;-69
2024/03/12 02:01:27;;;;;;;;;;;;;;;5.78;nan;100120.47;5004539;28;19932;-69
2024/03/12 02:03:52;;;;;;;;;;;;;;;5.76;nan;100123.22;5002824;28;19937;-69
2024/03/12 02:06:19;;;;;;;;;;;;;;;5.73;nan;100116.44;5007000;28;20303;-69
2024/03/12 02:08:46;;;;;;;;;;;;;;;5.71;nan;100112.28;5001350;28;20430;-69
2024/03/12 02:11:12;;;;;;;;;;;;;;;5.69;nan;100108.97;4997118;28;19926;-69
2024/03/12 02:13:40;;;;;;;;;;;;;;;5.71;nan;100114.91;5005936;28;19987;-69
2024/03/12 02:16:09;;;;;;;;;;;;;;;5.71;nan;100109.66;5004714;28;19932;-69
2024/03/12 02:18:35;;;;;;;;;;;;;;;5.73;nan;100119.06;5000938;28;19925;-69
2024/03/12 02:21:04;;;;;;;;;;;;;;;5.75;nan;100122.41;5002573;28;19926;-69
2024/03/12 02:23:39;;;;;;;;;;;;;;;5.77;nan;100117.03;4998053;28;20457;-69
2024/03/12 02:26:06;;;;;;;;;;;;;;;5.79;nan;100122.13;5006411;28;19956;-73
2024/03/12 02:28:32;;;;;;;;;;;;;;;5.81;nan;100120.22;5005169;28;19991;-69
2024/03/12 02:30:58;;;;;;;;;;;;;;;5.82;nan;100121.88;4995539;28;19930;-69
2024/03/12 02:33:24;;;;;;;;;;;;;;;5.90;nan;100132.53;4998859;28;19992;-69
2024/03/12 02:35:49;;;;;;;;;;;;;;;5.99;nan;100125.72;5000586;28;19926;-69
2024/03/12 02:38:15;;;;;;;;;;;;;;;6.01;nan;100124.63;5000694;28;19934;-69
2024/03/12 02:40:41;;;;;;;;;;;;;;;5.97;nan;100130.25;5004738;28;20375;-69
2024/03/12 02:43:07;;;;;;;;;;;;;;;5.95;nan;100125.97;5000927;28;19964;-69
2024/03/12 02:45:33;;;;;;;;;;;;;;;5.91;nan;100131.56;5006384;28;19925;-70
2024/03/12 02:47:59;;;;;;;;;;;;;;;5.87;nan;100131.00;5003589;28;20411;-69
2024/03/12 02:50:26;;;;;;;;;;;;;;;5.84;nan;100139.16;4990652;28;22743;-69
2024/03/12 02:52:51;;;;;;;;;;;;;;;5.83;nan;100147.16;5004580;28;19928;-69
2024/03/12 02:55:19;;;;;;;;;;;;;;;5.80;nan;100150.03;5006683;28;20114;-69
2024/03/12 02:57:45;;;;;;;;;;;;;;;5.75;nan;100143.38;5005118;28;20347;-69
2024/03/12 03:00:14;;;;;;;;;;;;;;;5.74;nan;100149.59;5000995;28;20008;-70
2024/03/12 03:02:43;;;;;;;;;;;;;;;5.72;nan;100150.66;5002175;28;20386;-69
2024/03/12 03:05:09;;;;;;;;;;;;;;;5.73;nan;100152.34;4980531;28;19932;-69
2024/03/12 03:07:36;;;;;;;;;;;;;;;5.66;nan;100157.28;4996171;28;20008;-69
2024/03/12 03:10:03;;;;;;;;;;;;;;;5.61;nan;100148.97;5001898;28;19928;-69
2024/03/12 03:12:29;;;;;;;;;;;;;;;5.62;nan;100155.03;5004433;28;20434;-69
2024/03/12 03:14:55;;;;;;;;;;;;;;;5.67;nan;100158.97;4998506;28;19928;-69
2024/03/12 03:17:20;;;;;;;;;;;;;;;5.74;nan;100165.34;5028119;28;20434;-69
2024/03/12 03:19:49;;;;;;;;;;;;;;;5.88;nan;100160.72;5004435;28;19925;-69
2024/03/12 03:22:15;;;;;;;;;;;;;;;6.01;nan;100166.63;5005068;28;19921;-70
2024/03/12 03:24:41;;;;;;;;;;;;;;;6.13;nan;100170.81;4999304;28;19926;-69
2024/03/12 03:27:10;;;;;;;;;;;;;;;6.24;nan;100164.63;5005350;28;20008;-69
2024/03/12 03:29:36;;;;;;;;;;;;;;;6.35;nan;100167.16;5004416;28;19926;-69
2024/03/12 03:32:06;;;;;;;;;;;;;;;6.46;nan;100168.00;5004656;28;19988;-70
2024/03/12 03:34:32;;;;;;;;;;;;;;;6.57;nan;100166.09;4999036;28;20054;-69
2024/03/12 03:36:58;;;;;;;;;;;;;;;6.65;nan;100168.06;4993883;28;19952;-69
2024/03/12 03:39:25;;;;;;;;;;;;;;;6.74;nan;100179.53;5008869;28;19929;-72
2024/03/12 03:41:51;;;;;;;;;;;;;;;6.78;nan;100178.31;5007141;28;19969;-69
2024/03/12 03:44:17;;;;;;;;;;;;;;;6.81;nan;100173.59;5036994;28;20306;-69
2024/03/12 03:46:43;;;;;;;;;;;;;;;6.86;nan;100177.63;4999770;28;19926;-70
2024/03/12 03:49:09;;;;;;;;;;;;;;;6.88;nan;100171.28;5014986;28;20264;-70
2024/03/12 03:51:35;;;;;;;;;;;;;;;6.93;nan;100181.38;5005906;28;20421;-69
2024/03/12 03:54:02;;;;;;;;;;;;;;;6.96;nan;100173.22;5007657;28;19931;-71
2024/03/12 03:56:27;;;;;;;;;;;;;;;7.02;nan;100177.94;5007995;28;19928;-71
2024/03/12 03:58:56;;;;;;;;;;;;;;;7.04;nan;100183.88;5007916;28;19929;-71
2024/03/12 04:01:28;;;;;;;;;;;;;;;7.12;nan;100183.19;5007167;28;19936;-71
2024/03/12 04:03:55;;;;;;;;;;;;;;;7.13;nan;100187.50;5005174;28;19925;-70
2024/03/12 04:06:21;;;;;;;;;;;;;;;7.15;nan;100188.16;5006954;28;20393;-70
2024/03/12 04:08:50;;;;;;;;;;;;;;;7.15;nan;100189.03;5007324;28;19921;-70
2024/03/12 04:11:16;;;;;;;;;;;;;;;7.16;nan;100192.47;5008245;28;20390;-71
2024/03/12 04:13:42;;;;;;;;;;;;;;;7.17;nan;100194.94;5007716;28;19929;-70
2024/03/12 04:16:08;;;;;;;;;;;;;;;7.16;nan;100198.56;5005028;28;20410;-71
2024/03/12 04:18:35;;;;;;;;;;;;;;;7.15;nan;100196.91;5003095;28;19929;-71
2024/03/12 04:21:01;;;;;;;;;;;;;;;7.13;nan;100205.91;5008620;28;19921;-71
2024/03/12 04:23:27;;;;;;;;;;;;;;;7.13;nan;100201.47;5008436;28;19932;-71
2024/03/12 04:25:53;;;;;;;;;;;;;;;7.14;nan;100212.81;5008954;28;19933;-71
2024/03/12 04:28:19;;;;;;;;;;;;;;;7.16;nan;100216.13;5007564;28;20325;-71
2024/03/12 04:30:51;;;;;;;;;;;;;;;7.16;nan;100213.50;5002340;28;19922;-71
2024/03/12 04:33:17;;;;;;;;;;;;;;;7.20;nan;100225.41;5016879;28;19976;-71
2024/03/12 04:35:46;;;;;;;;;;;;;;;7.21;nan;100229.69;5005469;28;19965;-70
2024/03/12 04:38:14;;;;;;;;;;;;;;;7.24;nan;100234.69;5003942;28;19971;-71
2024/03/12 04:40:43;;;;;;;;;;;;;;;7.27;nan;100236.19;5009039;28;19926;-70
2024/03/12 04:43:09;;;;;;;;;;;;;;;7.30;nan;100238.56;5004731;28;20013;-71
2024/03/12 04:45:35;;;;;;;;;;;;;;;7.34;nan;100243.44;5007670;28;19929;-71
2024/03/12 04:48:01;;;;;;;;;;;;;;;7.37;nan;100237.88;5007232;28;19928;-71
2024/03/12 04:50:27;;;;;;;;;;;;;;;7.40;nan;100244.66;5005052;28;20424;-71
2024/03/12 04:52:53;;;;;;;;;;;;;;;7.42;nan;100245.34;5007221;28;20329;-71
2024/03/12 04:55:18;;;;;;;;;;;;;;;7.42;nan;100256.69;4995658;28;19968;-71
2024/03/12 04:57:44;;;;;;;;;;;;;;;7.44;nan;100248.69;5001768;28;20398;-72
2024/03/12 05:00:13;;;;;;;;;;;;;;;7.40;nan;100252.56;4998283;28;20413;-71
2024/03/12 05:02:42;;;;;;;;;;;;;;;7.39;nan;100250.91;5005682;28;19961;-70
2024/03/12 05:05:11;;;;;;;;;;;;;;;7.38;nan;100257.13;5004118;28;19944;-70
2024/03/12 05:07:37;;;;;;;;;;;;;;;7.38;nan;100255.31;5006320;28;20210;-70
2024/03/12 05:10:04;;;;;;;;;;;;;;;7.40;nan;100263.06;5002466;28;19921;-70
2024/03/12 05:12:30;;;;;;;;;;;;;;;7.39;nan;100259.63;5002708;28;19937;-71
2024/03/12 05:14:56;;;;;;;;;;;;;;;7.39;nan;100262.25;5006592;28;19933;-71
2024/03/12 05:17:21;;;;;;;;;;;;;;;7.40;nan;100271.78;5004850;28;19952;-70
2024/03/12 05:19:47;;;;;;;;;;;;;;;7.44;nan;100277.63;5002401;28;19988;-70
2024/03/12 05:22:14;;;;;;;;;;;;;;;7.47;nan;100271.25;4999474;28;19922;-71
2024/03/12 05:24:40;;;;;;;;;;;;;;;7.47;nan;100274.72;4991560;28;19932;-72
2024/03/12 05:27:06;;;;;;;;;;;;;;;7.46;nan;100275.69;4998997;28;20016;-71
2024/03/12 05:29:43;;;;;;;;;;;;;;;7.47;nan;100281.78;5005246;28;20442;-71
2024/03/12 05:32:17;;;;;;;;;;;;;;;7.47;nan;100284.41;5033553;28;19932;-70
2024/03/12 05:34:47;;;;;;;;;;;;;;;7.45;nan;100285.34;5002184;28;19929;-70
2024/03/12 05:37:28;;;;;;;;;;;;;;;7.47;nan;100284.41;5005922;28;20346;-70
2024/03/12 05:40:18;;;;;;;;;;;;;;;7.52;nan;100287.44;5007640;28;19971;-70
2024/03/12 05:48:12;;;;;;;;;;;;;;;7.57;nan;100295.75;5005837;28;20373;-70
2024/03/12 05:50:39;;;;;;;;;;;;;;;7.59;nan;100302.53;5006163;28;19926;-71
2024/03/12 05:53:05;;;;;;;;;;;;;;;7.62;nan;100306.69;4997950;28;19928;-71
2024/03/12 05:55:30;;;;;;;;;;;;;;;7.64;nan;100310.84;5003385;28;19926;-71
2024/03/12 05:57:56;;;;;;;;;;;;;;;7.62;nan;100311.97;4992842;28;19930;-71
2024/03/12 06:00:23;;;;;;;;;;;;;;;7.60;nan;100316.53;5000585;28;20012;-71
2024/03/12 06:02:49;;;;;;;;;;;;;;;7.58;nan;100319.31;5004316;28;19928;-71
2024/03/12 06:05:16;;;;;;;;;;;;;;;7.57;nan;100322.91;4985275;28;19988;-71
2024/03/12 06:07:48;;;;;;;;;;;;;;;7.57;nan;100324.69;5001337;28;20002;-71
2024/03/12 06:10:14;;;;;;;;;;;;;;;7.58;nan;100321.09;5004083;28;19921;-71
2024/03/12 06:12:40;;;;;;;;;;;;;;;7.58;nan;100332.47;5006239;28;19949;-71
2024/03/12 06:15:06;;;;;;;;;;;;;;;7.60;nan;100330.53;5002433;28;19956;-71
2024/03/12 06:17:32;;;;;;;;;;;;;;;7.65;nan;100338.00;5001762;28;19921;-71
2024/03/12 06:19:58;;;;;;;;;;;;;;;7.64;nan;100341.59;5006753;28;20634;-71
2024/03/12 06:22:27;;;;;;;;;;;;;;;7.65;nan;100344.13;4999774;28;20379;-71
2024/03/12 06:24:53;;;;;;;;;;;;;;;7.68;nan;100344.81;5006669;28;19922;-71
2024/03/12 06:27:19;;;;;;;;;;;;;;;7.69;nan;100346.47;5006246;28;19999;-71
2024/03/12 06:29:49;;;;;;;;;;;;;;;7.71;nan;100347.97;5005405;28;20490;-71
2024/03/12 06:32:17;;;;;;;;;;;;;;;7.73;nan;100350.47;5020052;28;19917;-71
2024/03/12 06:34:45;;;;;;;;;;;;;;;7.72;nan;100354.06;5004662;28;19937;-71
2024/03/12 06:37:11;;;;;;;;;;;;;;;7.73;nan;100356.56;5015133;28;19924;-70
2024/03/12 06:39:40;;;;;;;;;;;;;;;7.74;nan;100354.78;5006764;28;19926;-71
2024/03/12 06:42:07;;;;;;;;;;;;;;;7.74;nan;100360.03;5005386;28;20517;-71
2024/03/12 06:44:40;;;;;;;;;;;;;;;7.75;nan;100361.72;5005968;28;19926;-71
2024/03/12 06:47:09;;;;;;;;;;;;;;;7.78;nan;100371.97;4996757;28;20005;-71
2024/03/12 06:49:36;;;;;;;;;;;;;;;7.79;nan;100371.81;5007863;28;19922;-71
2024/03/12 06:52:06;;;;;;;;;;;;;;;7.80;nan;100370.84;4991398;28;19930;-71
2024/03/12 06:54:32;;;;;;;;;;;;;;;7.83;nan;100377.63;5001757;28;19922;-71
2024/03/12 06:56:57;;;;;;;;;;;;;;;7.89;nan;100374.47;5008375;28;19924;-71
2024/03/12 06:59:26;;;;;;;;;;;;;;;7.90;nan;100381.38;5007983;28;19926;-70
2024/03/12 07:01:55;;;;;;;;;;;;;;;7.93;nan;100381.09;4991933;28;19976;-71
2024/03/12 07:04:23;;;;;;;;;;;;;;;7.94;nan;100384.59;4987564;28;20198;-71
2024/03/12 07:06:54;;;;;;;;;;;;;;;7.97;nan;100393.03;5006178;28;19929;-71
2024/03/12 07:09:31;;;;;;;;;;;;;;;7.99;nan;100391.09;5003301;28;19928;-71
2024/03/12 07:11:58;;;;;;;;;;;;;;;8.01;nan;100394.41;5028487;28;20307;-71
2024/03/12 07:14:27;;;;;;;;;;;;;;;8.05;nan;100389.69;4999757;28;19926;-72
2024/03/12 07:16:55;;;;;;;;;;;;;;;8.06;nan;100399.28;5004932;28;20391;-71
2024/03/12 07:19:22;;;;;;;;;;;;;;;8.05;nan;100406.31;5002782;28;19992;-71
2024/03/12 07:21:54;;;;;;;;;;;;;;;8.02;nan;100405.78;5002734;28;19969;-72
2024/03/12 07:24:20;;;;;;;;;;;;;;;8.00;nan;100405.91;5003571;28;19968;-70
2024/03/12 07:26:46;;;;;;;;;;;;;;;7.97;nan;100408.00;5006326;28;20037;-71
2024/03/12 07:29:13;;;;;;;;;;;;;;;7.98;nan;100420.19;5025541;28;19936;-71
2024/03/12 07:31:39;;;;;;;;;;;;;;;7.94;nan;100418.81;5004492;28;19952;-71
2024/03/12 07:34:08;;;;;;;;;;;;;;;7.93;nan;100425.03;5004067;28;19930;-72
2024/03/12 07:36:35;;;;;;;;;;;;;;;7.93;nan;100422.41;5005167;28;19929;-70
2024/03/12 07:39:08;;;;;;;;;;;;;;;7.97;nan;100413.25;5001216;28;20353;-71
2024/03/12 07:41:39;;;;;;;;;;;;;;;7.93;nan;100412.69;5001396;28;19929;-71
2024/03/12 07:44:06;;;;;;;;;;;;;;;7.98;nan;100415.75;5004834;28;19927;-70
2024/03/12 07:46:34;;;;;;;;;;;;;;;7.97;nan;100429.06;5006690;28;19933;-70
2024/03/12 07:48:59;;;;;;;;;;;;;;;7.99;nan;100429.75;5005876;28;19956;-70
2024/03/12 07:51:25;;;;;;;;;;;;;;;8.03;nan;100433.75;5005570;28;19957;-70
2024/03/12 07:53:51;;;;;;;;;;;;;;;8.11;nan;100430.47;5000810;28;19937;-71
2024/03/12 07:56:18;;;;;;;;;;;;;;;8.19;nan;100420.88;5005565;28;19960;-70
2024/03/12 07:58:46;;;;;;;;;;;;;;;8.25;nan;100424.78;4999854;28;19949;-70
2024/03/12 08:01:14;;;;;;;;;;;;;;;8.31;nan;100426.84;4993406;28;20100;-70
2024/03/12 08:03:41;;;;;;;;;;;;;;;8.35;nan;100428.22;4991309;28;20017;-70
2024/03/12 08:06:07;;;;;;;;;;;;;;;8.39;nan;100427.00;5002777;28;19929;-71
2024/03/12 08:08:33;;;;;;;;;;;;;;;8.44;nan;100437.16;5004231;28;19925;-70
2024/03/12 08:10:59;;;;;;;;;;;;;;;8.50;nan;100437.38;5003144;28;19928;-70
2024/03/12 08:13:25;;;;;;;;;;;;;;;8.61;nan;100440.88;5004651;28;19949;-70
2024/03/12 08:15:51;;;;;;;;;;;;;;;8.61;nan;100441.69;5001239;28;20302;-70
2024/03/12 08:18:21;;;;;;;;;;;;;;;8.62;nan;100440.69;5005832;28;20230;-70
2024/03/12 08:20:47;;;;;;;;;;;;;;;8.63;nan;100437.13;4997581;28;19930;-70
2024/03/12 08:23:14;;;;;;;;;;;;;;;8.70;nan;100438.22;4990918;28;20012;-70
2024/03/12 08:25:39;;;;;;;;;;;;;;;8.79;nan;100433.03;5007387;28;19929;-70
2024/03/12 08:28:05;;;;;;;;;;;;;;;8.97;nan;100439.25;5005026;28;20287;-70
2024/03/12 08:30:33;;;;;;;;;;;;;;;9.17;nan;100440.00;5003446;28;20375;-70
2024/03/12 08:32:59;;;;;;;;;;;;;;;9.30;nan;100444.97;4989160;28;19928;-70
2024/03/12 08:35:24;;;;;;;;;;;;;;;9.39;nan;100443.25;5007213;28;19921;-70
2024/03/12 08:37:50;;;;;;;;;;;;;;;9.38;nan;100438.97;4992216;28;19979;-70
2024/03/12 08:40:16;;;;;;;;;;;;;;;9.42;nan;100449.06;5004539;28;20763;-70
2024/03/12 08:42:42;;;;;;;;;;;;;;;9.43;nan;100448.09;5007124;28;20012;-70
2024/03/12 08:45:08;;;;;;;;;;;;;;;9.38;nan;100444.22;5003783;28;20343;-70
2024/03/12 08:47:38;;;;;;;;;;;;;;;9.30;nan;100452.88;5003965;28;20001;-70
2024/03/12 08:50:05;;;;;;;;;;;;;;;9.24;nan;100450.81;5007093;28;19921;-70
2024/03/12 08:52:30;;;;;;;;;;;;;;;9.20;nan;100457.34;5006755;28;19975;-71
2024/03/12 08:54:57;;;;;;;;;;;;;;;9.24;nan;100456.91;5005374;28;20318;-70
2024/03/12 08:57:22;;;;;;;;;;;;;;;9.33;nan;100465.78;5005976;28;20013;-70
2024/03/12 08:59:48;;;;;;;;;;;;;;;9.35;nan;100458.56;5006091;28;20032;-70
2024/03/12 09:02:18;;;;;;;;;;;;;;;9.42;nan;100459.63;5005515;28;19917;-71
2024/03/12 09:04:44;;;;;;;;;;;;;;;9.52;nan;100464.88;5003532;28;19932;-70
2024/03/12 09:07:10;;;;;;;;;;;;;;;9.62;nan;100456.91;5002922;28;19925;-70
2024/03/12 09:09:37;;;;;;;;;;;;;;;9.71;nan;100466.56;4998553;28;20564;-70
2024/03/12 09:12:03;;;;;;;;;;;;;;;9.80;nan;100465.69;5004841;28;19922;-71
2024/03/12 09:14:30;;;;;;;;;;;;;;;9.94;nan;100465.19;5006839;28;20299;-71
2024/03/12 09:16:57;;;;;;;;;;;;;;;9.96;nan;100465.88;5006231;28;20375;-71
2024/03/12 09:19:24;;;;;;;;;;;;;;;10.00;nan;100469.84;5005683;28;19932;-70
2024/03/12 09:21:50;;;;;;;;;;;;;;;9.96;nan;100471.16;5007934;28;19925;-71
2024/03/12 09:24:16;;;;;;;;;;;;;;;9.89;nan;100471.88;5005915;28;19971;-71
2024/03/12 09:26:43;;;;;;;;;;;;;;;9.85;nan;100479.28;5007339;28;19921;-70
2024/03/12 09:29:12;;;;;;;;;;;;;;;9.84;nan;100482.06;5002719;28;20532;-70
2024/03/12 09:31:39;;;;;;;;;;;;;;;9.81;nan;100488.47;5007119;28;19936;-70
2024/03/12 09:34:04;;;;;;;;;;;;;;;9.70;nan;100486.03;5001294;28;19948;-70
2024/03/12 09:36:32;;;;;;;;;;;;;;;9.61;nan;100489.56;5007427;28;19974;-71
2024/03/12 09:38:58;;;;;;;;;;;;;;;9.53;nan;100499.03;4997444;28;19980;-70
2024/03/12 09:41:25;;;;;;;;;;;;;;;9.43;nan;100502.69;4982539;28;20316;-70
2024/03/12 09:43:53;;;;;;;;;;;;;;;9.30;nan;100498.56;5005351;28;19921;-70
2024/03/12 09:46:20;;;;;;;;;;;;;;;9.21;nan;100496.78;5005408;28;20080;-71
2024/03/12 09:48:47;;;;;;;;;;;;;;;9.20;nan;100500.41;5001282;28;20980;-70
2024/03/12 09:51:13;;;;;;;;;;;;;;;9.16;nan;100498.22;4994663;28;20229;-70
2024/03/12 09:53:41;;;;;;;;;;;;;;;9.16;nan;100512.22;5028999;28;19929;-70
2024/03/12 09:56:10;;;;;;;;;;;;;;;9.16;nan;100509.59;5003468;28;20396;-71
2024/03/12 09:58:36;;;;;;;;;;;;;;;9.13;nan;100518.63;5005069;28;20537;-70
2024/03/12 10:01:06;;;;;;;;;;;;;;;9.20;nan;100516.25;5005221;28;20481;-70
2024/03/12 10:03:35;;;;;;;;;;;;;;;9.22;nan;100516.91;5002719;28;21378;-70
2024/03/12 10:06:02;;;;;;;;;;;;;;;9.24;nan;100512.31;5029982;28;20397;-70
2024/03/12 10:08:28;;;;;;;;;;;;;;;9.30;nan;100522.31;5000775;28;20306;-70
2024/03/12 10:10:54;;;;;;;;;;;;;;;9.32;nan;100522.19;4992068;28;19921;-70
2024/03/12 10:13:20;;;;;;;;;;;;;;;9.34;nan;100521.06;4993813;28;19937;-70
2024/03/12 10:15:54;;;;;;;;;;;;;;;9.39;nan;100527.69;4998777;28;19918;-71
2024/03/12 10:18:27;;;;;;;;;;;;;;;9.49;nan;100528.50;5002794;28;20148;-70
2024/03/12 10:21:00;;;;;;;;;;;;;;;9.53;nan;100516.66;5004543;28;20137;-70
2024/03/12 10:23:27;;;;;;;;;;;;;;;9.54;nan;100524.44;5032598;28;19921;-70
2024/03/12 10:25:56;;;;;;;;;;;;;;;9.54;nan;100526.25;5005941;28;19922;-70
2024/03/12 10:28:24;;;;;;;;;;;;;;;9.57;nan;100532.06;5004138;28;19944;-70
2024/03/12 10:30:51;;;;;;;;;;;;;;;9.62;nan;100528.16;5004369;28;19929;-70
2024/03/12 10:33:17;;;;;;;;;;;;;;;9.62;nan;100528.16;5003901;28;19921;-70
2024/03/12 10:35:44;;;;;;;;;;;;;;;9.57;nan;100526.78;5005054;28;20032;-70
2024/03/12 10:38:14;;;;;;;;;;;;;;;9.60;nan;100524.84;5004182;28;19935;-71
2024/03/12 10:40:41;;;;;;;;;;;;;;;9.51;nan;100534.44;5004757;28;19925;-70
2024/03/12 10:43:08;;;;;;;;;;;;;;;9.45;nan;100530.59;5005123;28;20011;-70
2024/03/12 10:45:34;;;;;;;;;;;;;;;9.35;nan;100540.34;5004081;28;19921;-70
2024/03/12 10:48:00;;;;;;;;;;;;;;;9.30;nan;100539.97;5004047;28;20016;-70
2024/03/12 10:50:26;;;;;;;;;;;;;;;9.29;nan;100543.56;5005170;28;20012;-70
2024/03/12 10:52:56;;;;;;;;;;;;;;;9.27;nan;100548.13;5003682;28;20498;-70
2024/03/12 10:55:23;;;;;;;;;;;;;;;9.20;nan;100542.63;5000871;28;19976;-70
2024/03/12 10:57:54;;;;;;;;;;;;;;;9.12;nan;100545.94;5000390;28;19980;-70
2024/03/12 11:00:25;;;;;;;;;;;;;;;9.02;nan;100544.31;5002670;28;20306;-70
2024/03/12 11:02:54;;;;;;;;;;;;;;;8.96;nan;100540.41;4998351;28;19929;-70
2024/03/12 11:05:32;;;;;;;;;;;;;;;8.93;nan;100548.63;5028173;28;20036;-70
2024/03/12 11:07:59;;;;;;;;;;;;;;;8.95;nan;100546.69;5004728;28;19921;-70
2024/03/12 11:10:28;;;;;;;;;;;;;;;8.95;nan;100538.78;5022756;28;19929;-70
2024/03/12 11:12:55;;;;;;;;;;;;;;;8.92;nan;100536.44;4999626;28;19952;-70
2024/03/12 11:15:22;;;;;;;;;;;;;;;8.98;nan;100542.94;5004607;28;20004;-70
2024/03/12 11:17:49;;;;;;;;;;;;;;;9.04;nan;100537.09;5004722;28;19921;-70
2024/03/12 11:20:17;;;;;;;;;;;;;;;9.09;nan;100538.34;5003460;28;20339;-71
2024/03/12 11:22:44;;;;;;;;;;;;;;;9.10;nan;100539.97;5005991;28;19921;-70
2024/03/12 11:25:17;;;;;;;;;;;;;;;9.07;nan;100540.28;4987078;28;20020;-70
2024/03/12 11:27:45;;;;;;;;;;;;;;;9.06;nan;100535.16;5005661;28;20366;-70
2024/03/12 11:30:14;;;;;;;;;;;;;;;9.01;nan;100535.59;5002829;28;19921;-71
2024/03/12 11:32:43;;;;;;;;;;;;;;;8.90;nan;100538.38;5000416;28;20309;-71
2024/03/12 11:35:21;;;;;;;;;;;;;;;8.87;nan;100533.38;5004822;28;19925;-70
2024/03/12 11:37:47;;;;;;;;;;;;;;;8.83;nan;100527.53;5035282;28;19934;-70
2024/03/12 11:40:27;;;;;;;;;;;;;;;8.78;nan;100528.94;5000934;28;20437;-71
2024/03/12 11:42:57;;;;;;;;;;;;;;;8.78;nan;100526.31;5003959;28;20186;-70
2024/03/12 11:45:42;;;;;;;;;;;;;;;8.79;nan;100533.22;5002614;28;20003;-70
2024/03/12 11:48:22;;;;;;;;;;;;;;;8.76;nan;100533.53;5008955;28;19925;-70
2024/03/12 11:50:52;;;;;;;;;;;;;;;8.69;nan;100528.78;4991713;28;19929;-70
2024/03/12 11:53:29;;;;;;;;;;;;;;;8.62;nan;100540.03;5013198;28;19957;-70
2024/03/12 11:56:10;;;;;;;;;;;;;;;8.63;nan;100547.00;5004083;28;19922;-70
2024/03/12 11:58:48;;;;;;;;;;;;;;;8.69;nan;100544.59;5005307;28;20710;-70
2024/03/12 12:01:34;;;;;;;;;;;;;;;8.76;nan;100542.25;5007182;28;19921;-70
2024/03/12 12:04:10;;;;;;;;;;;;;;;8.77;nan;100545.72;5007640;28;19930;-70
2024/03/12 12:06:36;;;;;;;;;;;;;;;8.77;nan;100554.47;5007324;28;19933;-70
2024/03/12 12:09:08;;;;;;;;;;;;;;;8.87;nan;100549.19;5006922;28;19921;-70
2024/03/12 12:11:36;;;;;;;;;;;;;;;9.01;nan;100554.03;5003721;28;19928;-70
2024/03/12 12:14:04;;;;;;;;;;;;;;;9.07;nan;100555.28;5007079;28;20023;-70
2024/03/12 12:16:30;;;;;;;;;;;;;;;9.13;nan;100560.00;5006664;28;19922;-70
2024/03/12 12:19:04;;;;;;;;;;;;;;;9.14;nan;100561.66;5007388;28;19932;-69
2024/03/12 12:21:30;;;;;;;;;;;;;;;9.20;nan;100566.38;5007547;28;19979;-69
2024/03/12 12:23:58;;;;;;;;;;;;;;;9.07;nan;100565.81;4993255;28;19926;-70
2024/03/12 12:26:25;;;;;;;;;;;;;;;8.97;nan;100570.28;4988053;28;19961;-69
2024/03/12 12:28:57;;;;;;;;;;;;;;;8.86;nan;100558.88;5007101;28;20020;-70
2024/03/12 12:31:24;;;;;;;;;;;;;;;8.79;nan;100567.50;5004234;28;19973;-69
2024/03/12 12:33:53;;;;;;;;;;;;;;;8.75;nan;100560.84;5007966;28;20442;-69
2024/03/12 12:36:21;;;;;;;;;;;;;;;8.67;nan;100570.28;5010737;28;19921;-70
2024/03/12 12:38:49;;;;;;;;;;;;;;;8.65;nan;100563.47;5011606;28;19930;-70
2024/03/12 12:41:21;;;;;;;;;;;;;;;8.67;nan;100564.19;5036273;28;19921;-70
2024/03/12 12:43:48;;;;;;;;;;;;;;;8.68;nan;100568.50;5008572;28;20706;-70
2024/03/12 12:46:25;;;;;;;;;;;;;;;8.68;nan;100571.97;4989398;28;20045;-69
2024/03/12 12:48:53;;;;;;;;;;;;;;;8.69;nan;100563.06;5007037;28;19921;-70
2024/03/12 12:51:20;;;;;;;;;;;;;;;8.71;nan;100573.47;5007405;28;20375;-70
2024/03/12 12:53:45;;;;;;;;;;;;;;;8.71;nan;100584.03;5006964;28;20268;-70
2024/03/12 12:56:12;;;;;;;;;;;;;;;8.65;nan;100574.03;5009974;28;19948;-69
2024/03/12 12:58:41;;;;;;;;;;;;;;;8.62;nan;100575.13;5011921;28;19934;-70
2024/03/12 13:01:11;;;;;;;;;;;;;;;8.66;nan;100568.63;5006421;28;19925;-69
2024/03/12 13:03:40;;;;;;;;;;;;;;;8.76;nan;100562.53;5007024;28;19930;-70
2024/03/12 13:06:18;;;;;;;;;;;;;;;8.80;nan;100569.19;5005521;28;19925;-71
2024/03/12 13:08:45;;;;;;;;;;;;;;;8.81;nan;100568.22;5006603;28;19926;-70
2024/03/12 13:11:14;;;;;;;;;;;;;;;8.81;nan;100562.94;5005809;28;19929;-69
2024/03/12 13:13:41;;;;;;;;;;;;;;;8.84;nan;100575.81;5006620;28;19967;-69
2024/03/12 13:16:13;;;;;;;;;;;;;;;8.89;nan;100566.53;4991108;28;19929;-71